DAL8932 KEWR-KMKE
Flight info
| Callsign | DAL8932 |
|---|---|
| Flight time | 1h 59m |
| Altitude | 32000 |
| Route | NEWEL J60 DJB CRL PEGEE GETCH LYSTR SUDDS |
| Aircraft | E75L/M-SDE3GILORVW/S |
Departure
| Time | 2026-04-23 01:42 |
|---|---|
| Airport | Newark Liberty International Airport (KEWR) |
Arrival
| Time | 2026-04-23 03:41 |
|---|---|
| Airport | General Mitchell International Airport (KMKE) |
| Time | Latitude | Longitude | Altitude | Speed | Heading |
|---|---|---|---|---|---|
| 2026-04-23 01:10 | 40.69817 | -74.17519 | 20 ft | 0 kts | 166° |
| 2026-04-23 01:27 | 40.69822 | -74.17521 | 20 ft | 4 kts | 166° |
| 2026-04-23 01:28 | 40.69848 | -74.17529 | 21 ft | 4 kts | 166° |
| 2026-04-23 01:28 | 40.69870 | -74.17537 | 20 ft | 4 kts | 156° |
| 2026-04-23 01:28 | 40.69886 | -74.17561 | 20 ft | 4 kts | 100° |
| 2026-04-23 01:28 | 40.69878 | -74.17589 | 20 ft | 4 kts | 40° |
| 2026-04-23 01:29 | 40.69857 | -74.17613 | 20 ft | 4 kts | 40° |
| 2026-04-23 01:29 | 40.69846 | -74.17626 | 22 ft | 0 kts | 40° |
| 2026-04-23 01:33 | 40.69850 | -74.17621 | 20 ft | 1 kts | 40° |
| 2026-04-23 01:33 | 40.69854 | -74.17616 | 20 ft | 3 kts | 40° |
| 2026-04-23 01:33 | 40.69875 | -74.17592 | 21 ft | 5 kts | 43° |
| 2026-04-23 01:34 | 40.69886 | -74.17578 | 20 ft | 0 kts | 43° |
| 2026-04-23 01:36 | 40.69893 | -74.17568 | 22 ft | 4 kts | 46° |
| 2026-04-23 01:36 | 40.69897 | -74.17489 | 21 ft | 13 kts | 101° |
| 2026-04-23 01:37 | 40.69893 | -74.17407 | 20 ft | 8 kts | 52° |
| 2026-04-23 01:37 | 40.69952 | -74.17383 | 21 ft | 10 kts | 2° |
| 2026-04-23 01:37 | 40.70030 | -74.17372 | 20 ft | 12 kts | 7° |
| 2026-04-23 01:37 | 40.70111 | -74.17357 | 22 ft | 5 kts | 21° |
| 2026-04-23 01:38 | 40.70117 | -74.17350 | 20 ft | 1 kts | 69° |
| 2026-04-23 01:38 | 40.70120 | -74.17289 | 20 ft | 11 kts | 94° |
| 2026-04-23 01:38 | 40.70111 | -74.17174 | 20 ft | 14 kts | 95° |
| 2026-04-23 01:38 | 40.70101 | -74.17028 | 20 ft | 18 kts | 95° |
| 2026-04-23 01:39 | 40.70090 | -74.16857 | 20 ft | 20 kts | 95° |
| 2026-04-23 01:39 | 40.70079 | -74.16668 | 19 ft | 21 kts | 96° |
| 2026-04-23 01:39 | 40.70067 | -74.16482 | 18 ft | 7 kts | 95° |
| 2026-04-23 01:39 | 40.70067 | -74.16479 | 18 ft | 0 kts | 95° |
| 2026-04-23 01:41 | 40.70066 | -74.16459 | 18 ft | 7 kts | 95° |
| 2026-04-23 01:41 | 40.70043 | -74.16390 | 19 ft | 10 kts | 128° |
| 2026-04-23 01:41 | 40.70030 | -74.16373 | 17 ft | 0 kts | 162° |
| 2026-04-23 01:41 | 40.70020 | -74.16373 | 17 ft | 3 kts | 191° |
| 2026-04-23 01:42 | 40.69832 | -74.16485 | 19 ft | 73 kts | 206° |
| 2026-04-23 01:42 | 40.69100 | -74.16932 | 23 ft | 156 kts | 205° |
| 2026-04-23 01:42 | 40.68000 | -74.17650 | 543 ft | 196 kts | 204° |
| 2026-04-23 01:42 | 40.66620 | -74.18464 | 1261 ft | 238 kts | 204° |
| 2026-04-23 01:43 | 40.65114 | -74.19511 | 2541 ft | 257 kts | 210° |
| 2026-04-23 01:43 | 40.63396 | -74.20705 | 3182 ft | 291 kts | 205° |
| 2026-04-23 01:43 | 40.61611 | -74.21867 | 3601 ft | 283 kts | 204° |
| 2026-04-23 01:43 | 40.59827 | -74.22984 | 3245 ft | 279 kts | 205° |
| 2026-04-23 01:44 | 40.58299 | -74.24313 | 3552 ft | 248 kts | 220° |
| 2026-04-23 01:44 | 40.56982 | -74.25745 | 4317 ft | 252 kts | 210° |
| 2026-04-23 01:44 | 40.55350 | -74.26776 | 3779 ft | 270 kts | 211° |
| 2026-04-23 01:44 | 40.54005 | -74.28585 | 3108 ft | 281 kts | 245° |
| 2026-04-23 01:45 | 40.53679 | -74.31051 | 4056 ft | 272 kts | 278° |
| 2026-04-23 01:45 | 40.54394 | -74.33281 | 5506 ft | 263 kts | 308° |
| 2026-04-23 01:45 | 40.55826 | -74.34686 | 6849 ft | 257 kts | 330° |
| 2026-04-23 01:45 | 40.57292 | -74.36010 | 7866 ft | 257 kts | 310° |
| 2026-04-23 01:46 | 40.58241 | -74.38007 | 8803 ft | 259 kts | 297° |
| 2026-04-23 01:46 | 40.59084 | -74.40127 | 9736 ft | 264 kts | 297° |
| 2026-04-23 01:46 | 40.59963 | -74.42318 | 10191 ft | 278 kts | 298° |
| 2026-04-23 01:46 | 40.60838 | -74.44708 | 10580 ft | 297 kts | 293° |
| 2026-04-23 01:47 | 40.61667 | -74.47249 | 11307 ft | 308 kts | 294° |
| 2026-04-23 01:47 | 40.62562 | -74.49838 | 12188 ft | 312 kts | 296° |
| 2026-04-23 01:47 | 40.63551 | -74.52391 | 13031 ft | 316 kts | 297° |
| 2026-04-23 01:47 | 40.64557 | -74.54986 | 13914 ft | 320 kts | 298° |
| 2026-04-23 01:48 | 40.65604 | -74.57582 | 14865 ft | 323 kts | 299° |
| 2026-04-23 01:48 | 40.66675 | -74.60208 | 15753 ft | 327 kts | 299° |
| 2026-04-23 01:48 | 40.67767 | -74.62842 | 16657 ft | 329 kts | 299° |
| 2026-04-23 01:48 | 40.68875 | -74.65492 | 17503 ft | 331 kts | 300° |
| 2026-04-23 01:49 | 40.69981 | -74.68122 | 18384 ft | 332 kts | 300° |
| 2026-04-23 01:49 | 40.71112 | -74.70799 | 19143 ft | 337 kts | 300° |
| 2026-04-23 01:49 | 40.72270 | -74.73503 | 19907 ft | 341 kts | 300° |
| 2026-04-23 01:49 | 40.73452 | -74.76232 | 20606 ft | 345 kts | 301° |
| 2026-04-23 01:50 | 40.74651 | -74.78990 | 21252 ft | 349 kts | 301° |
| 2026-04-23 01:50 | 40.75876 | -74.81768 | 21883 ft | 352 kts | 301° |
| 2026-04-23 01:50 | 40.77130 | -74.84569 | 22466 ft | 356 kts | 302° |
| 2026-04-23 01:50 | 40.78404 | -74.87395 | 23039 ft | 360 kts | 302° |
| 2026-04-23 01:51 | 40.79693 | -74.90241 | 23636 ft | 363 kts | 302° |
| 2026-04-23 01:51 | 40.81002 | -74.93109 | 24208 ft | 367 kts | 302° |
| 2026-04-23 01:51 | 40.82327 | -74.96000 | 24822 ft | 369 kts | 302° |
| 2026-04-23 01:51 | 40.83667 | -74.98904 | 25438 ft | 371 kts | 303° |
| 2026-04-23 01:52 | 40.85011 | -75.01803 | 26159 ft | 368 kts | 303° |
| 2026-04-23 01:52 | 40.86348 | -75.04674 | 26913 ft | 364 kts | 303° |
| 2026-04-23 01:52 | 40.87674 | -75.07504 | 27629 ft | 361 kts | 304° |
| 2026-04-23 01:52 | 40.89000 | -75.10303 | 28332 ft | 357 kts | 304° |
| 2026-04-23 01:53 | 40.90311 | -75.13070 | 28968 ft | 354 kts | 304° |
| 2026-04-23 01:53 | 40.91369 | -75.16015 | 29525 ft | 357 kts | 294° |
| 2026-04-23 01:53 | 40.91966 | -75.19199 | 29984 ft | 357 kts | 284° |
| 2026-04-23 01:53 | 40.92053 | -75.22566 | 30023 ft | 379 kts | 272° |
| 2026-04-23 01:54 | 40.91527 | -75.26081 | 30084 ft | 402 kts | 260° |
| 2026-04-23 01:54 | 40.90451 | -75.29563 | 30122 ft | 414 kts | 254° |
| 2026-04-23 01:54 | 40.88015 | -75.36542 | 30049 ft | 421 kts | 253° |
| 2026-04-23 01:55 | 40.85938 | -75.43691 | 30027 ft | 414 kts | 261° |
| 2026-04-23 01:55 | 40.84221 | -75.50952 | 30032 ft | 414 kts | 261° |
| 2026-04-23 01:56 | 40.82492 | -75.58226 | 30031 ft | 416 kts | 260° |
| 2026-04-23 01:56 | 40.80757 | -75.65509 | 30064 ft | 416 kts | 260° |
| 2026-04-23 01:57 | 40.79014 | -75.72798 | 30056 ft | 417 kts | 260° |
| 2026-04-23 01:57 | 40.77262 | -75.80099 | 30057 ft | 417 kts | 260° |
| 2026-04-23 01:58 | 40.75514 | -75.87368 | 30058 ft | 419 kts | 260° |
| 2026-04-23 01:58 | 40.73745 | -75.94690 | 30058 ft | 419 kts | 260° |
| 2026-04-23 01:59 | 40.71973 | -76.02014 | 30047 ft | 420 kts | 260° |
| 2026-04-23 01:59 | 40.70186 | -76.09372 | 30039 ft | 422 kts | 260° |
| 2026-04-23 02:00 | 40.68394 | -76.16721 | 30035 ft | 421 kts | 260° |
| 2026-04-23 02:00 | 40.67014 | -76.24124 | 30051 ft | 408 kts | 274° |
| 2026-04-23 02:01 | 40.67208 | -76.27785 | 30055 ft | 396 kts | 286° |
| 2026-04-23 02:01 | 40.67717 | -76.31359 | 30056 ft | 397 kts | 287° |
| 2026-04-23 02:01 | 40.68776 | -76.38487 | 30027 ft | 396 kts | 287° |
| 2026-04-23 02:02 | 40.69836 | -76.45601 | 30027 ft | 396 kts | 287° |
| 2026-04-23 02:02 | 40.70891 | -76.52721 | 30024 ft | 395 kts | 287° |
| 2026-04-23 02:03 | 40.71948 | -76.59831 | 30018 ft | 395 kts | 287° |
| 2026-04-23 02:03 | 40.73000 | -76.66945 | 30019 ft | 395 kts | 287° |
| 2026-04-23 02:04 | 40.74046 | -76.74057 | 30007 ft | 395 kts | 287° |
| 2026-04-23 02:04 | 40.75080 | -76.81118 | 30000 ft | 394 kts | 287° |
| 2026-04-23 02:05 | 40.76115 | -76.88219 | 30015 ft | 394 kts | 287° |
| 2026-04-23 02:05 | 40.77147 | -76.95324 | 30010 ft | 395 kts | 287° |
| 2026-04-23 02:06 | 40.78174 | -77.02445 | 30008 ft | 395 kts | 287° |
| 2026-04-23 02:06 | 40.79200 | -77.09568 | 30008 ft | 395 kts | 287° |
| 2026-04-23 02:07 | 40.80218 | -77.16680 | 30014 ft | 394 kts | 287° |
| 2026-04-23 02:07 | 40.81232 | -77.23791 | 30002 ft | 394 kts | 287° |
| 2026-04-23 02:08 | 40.82245 | -77.30891 | 30015 ft | 396 kts | 287° |
| 2026-04-23 02:08 | 40.83253 | -77.38044 | 30032 ft | 396 kts | 287° |
| 2026-04-23 02:09 | 40.84259 | -77.45188 | 30011 ft | 395 kts | 287° |
| 2026-04-23 02:09 | 40.85237 | -77.52336 | 30018 ft | 395 kts | 287° |
| 2026-04-23 02:10 | 40.86216 | -77.59478 | 30007 ft | 395 kts | 287° |
| 2026-04-23 02:10 | 40.87192 | -77.66624 | 30035 ft | 395 kts | 287° |
| 2026-04-23 02:11 | 40.88170 | -77.73782 | 30022 ft | 395 kts | 287° |
| 2026-04-23 02:11 | 40.89139 | -77.80875 | 30039 ft | 395 kts | 287° |
| 2026-04-23 02:12 | 40.90108 | -77.88027 | 30049 ft | 395 kts | 287° |
| 2026-04-23 02:12 | 40.91076 | -77.95174 | 30035 ft | 396 kts | 287° |
| 2026-04-23 02:13 | 40.92022 | -78.02351 | 30042 ft | 397 kts | 286° |
| 2026-04-23 02:13 | 40.92908 | -78.09562 | 30037 ft | 397 kts | 286° |
| 2026-04-23 02:14 | 40.93797 | -78.16771 | 30043 ft | 397 kts | 286° |
| 2026-04-23 02:14 | 40.94683 | -78.23976 | 30043 ft | 396 kts | 286° |
| 2026-04-23 02:15 | 40.95996 | -78.34724 | 30046 ft | 397 kts | 286° |
| 2026-04-23 02:16 | 40.96868 | -78.41928 | 30065 ft | 397 kts | 286° |
| 2026-04-23 02:16 | 40.97740 | -78.49144 | 30056 ft | 397 kts | 286° |
| 2026-04-23 02:17 | 40.98610 | -78.56365 | 30053 ft | 398 kts | 285° |
| 2026-04-23 02:17 | 40.99469 | -78.63578 | 30055 ft | 397 kts | 285° |
| 2026-04-23 02:18 | 41.00179 | -78.69567 | 30061 ft | 396 kts | 285° |
| 2026-04-23 02:18 | 41.01030 | -78.76788 | 30054 ft | 397 kts | 285° |
| 2026-04-23 02:19 | 41.01881 | -78.84006 | 30051 ft | 397 kts | 285° |
| 2026-04-23 02:19 | 41.02724 | -78.91239 | 30057 ft | 398 kts | 285° |
| 2026-04-23 02:20 | 41.03562 | -78.98474 | 30058 ft | 397 kts | 285° |
| 2026-04-23 02:20 | 41.04400 | -79.05694 | 30057 ft | 397 kts | 285° |
| 2026-04-23 02:21 | 41.05229 | -79.12922 | 30065 ft | 397 kts | 285° |
| 2026-04-23 02:21 | 41.06055 | -79.20160 | 30054 ft | 397 kts | 285° |
| 2026-04-23 02:22 | 41.06877 | -79.27401 | 30057 ft | 397 kts | 285° |
| 2026-04-23 02:22 | 41.07698 | -79.34637 | 30057 ft | 397 kts | 285° |
| 2026-04-23 02:23 | 41.08505 | -79.41837 | 30060 ft | 397 kts | 285° |
| 2026-04-23 02:23 | 41.09315 | -79.49077 | 30063 ft | 397 kts | 285° |
| 2026-04-23 02:24 | 41.10125 | -79.56332 | 30063 ft | 398 kts | 285° |
| 2026-04-23 02:24 | 41.10933 | -79.63590 | 30064 ft | 398 kts | 284° |
| 2026-04-23 02:25 | 41.11731 | -79.70841 | 30062 ft | 396 kts | 284° |
| 2026-04-23 02:25 | 41.12523 | -79.78078 | 30067 ft | 397 kts | 284° |
| 2026-04-23 02:26 | 41.13310 | -79.85323 | 30063 ft | 397 kts | 284° |
| 2026-04-23 02:26 | 41.14095 | -79.92580 | 30062 ft | 397 kts | 284° |
| 2026-04-23 02:27 | 41.14879 | -79.99841 | 30052 ft | 397 kts | 284° |
| 2026-04-23 02:27 | 41.15655 | -80.07115 | 30057 ft | 399 kts | 284° |
| 2026-04-23 02:28 | 41.16431 | -80.14408 | 30055 ft | 399 kts | 284° |
| 2026-04-23 02:28 | 41.17178 | -80.21668 | 30055 ft | 400 kts | 283° |
| 2026-04-23 02:29 | 41.17923 | -80.28982 | 30048 ft | 400 kts | 283° |
| 2026-04-23 02:29 | 41.18675 | -80.36309 | 30045 ft | 400 kts | 283° |
| 2026-04-23 02:30 | 41.19427 | -80.43627 | 30045 ft | 400 kts | 283° |
| 2026-04-23 02:30 | 41.20175 | -80.50955 | 30055 ft | 400 kts | 283° |
| 2026-04-23 02:31 | 41.20919 | -80.58277 | 30058 ft | 400 kts | 283° |
| 2026-04-23 02:31 | 41.21661 | -80.65618 | 30058 ft | 401 kts | 283° |
| 2026-04-23 02:32 | 41.22397 | -80.72963 | 30057 ft | 401 kts | 283° |
| 2026-04-23 02:32 | 41.23131 | -80.80319 | 30055 ft | 402 kts | 283° |
| 2026-04-23 02:33 | 41.23855 | -80.87624 | 30056 ft | 402 kts | 282° |
| 2026-04-23 02:33 | 41.24579 | -80.94984 | 30071 ft | 402 kts | 282° |
| 2026-04-23 02:34 | 41.25301 | -81.02366 | 30065 ft | 403 kts | 282° |
| 2026-04-23 02:34 | 41.26018 | -81.09738 | 30063 ft | 403 kts | 282° |
| 2026-04-23 02:35 | 41.26728 | -81.17126 | 30076 ft | 403 kts | 282° |
| 2026-04-23 02:35 | 41.27436 | -81.24518 | 30073 ft | 403 kts | 282° |
| 2026-04-23 02:36 | 41.28139 | -81.31906 | 30076 ft | 403 kts | 282° |
| 2026-04-23 02:36 | 41.28840 | -81.39304 | 30072 ft | 404 kts | 282° |
| 2026-04-23 02:37 | 41.29536 | -81.46716 | 30071 ft | 403 kts | 282° |
| 2026-04-23 02:37 | 41.30225 | -81.54059 | 30070 ft | 403 kts | 282° |
| 2026-04-23 02:38 | 41.30906 | -81.61470 | 30066 ft | 404 kts | 281° |
| 2026-04-23 02:38 | 41.31581 | -81.68900 | 30066 ft | 404 kts | 281° |
| 2026-04-23 02:39 | 41.32253 | -81.76309 | 30066 ft | 403 kts | 281° |
| 2026-04-23 02:39 | 41.32921 | -81.83725 | 30058 ft | 404 kts | 281° |
| 2026-04-23 02:40 | 41.33586 | -81.91148 | 30068 ft | 404 kts | 281° |
| 2026-04-23 02:40 | 41.34240 | -81.98526 | 30066 ft | 404 kts | 281° |
| 2026-04-23 02:41 | 41.34893 | -82.05959 | 30073 ft | 406 kts | 281° |
| 2026-04-23 02:41 | 41.35602 | -82.13401 | 30078 ft | 403 kts | 286° |
| 2026-04-23 02:41 | 41.36488 | -82.16911 | 30098 ft | 398 kts | 298° |
| 2026-04-23 02:42 | 41.37929 | -82.20038 | 30102 ft | 396 kts | 306° |
| 2026-04-23 02:42 | 41.41129 | -82.26003 | 30082 ft | 396 kts | 307° |
| 2026-04-23 02:43 | 41.44348 | -82.31965 | 30084 ft | 396 kts | 307° |
| 2026-04-23 02:43 | 41.47570 | -82.37920 | 30066 ft | 394 kts | 307° |
| 2026-04-23 02:44 | 41.50785 | -82.43867 | 30069 ft | 396 kts | 307° |
| 2026-04-23 02:44 | 41.54003 | -82.49831 | 30059 ft | 396 kts | 307° |
| 2026-04-23 02:45 | 41.57223 | -82.55806 | 30062 ft | 396 kts | 307° |
| 2026-04-23 02:45 | 41.60437 | -82.61778 | 30068 ft | 396 kts | 307° |
| 2026-04-23 02:46 | 41.63651 | -82.67764 | 30065 ft | 396 kts | 307° |
| 2026-04-23 02:46 | 41.66845 | -82.73717 | 30056 ft | 396 kts | 307° |
| 2026-04-23 02:47 | 41.70054 | -82.79721 | 30057 ft | 398 kts | 307° |
| 2026-04-23 02:47 | 41.73271 | -82.85751 | 30054 ft | 398 kts | 307° |
| 2026-04-23 02:48 | 41.76481 | -82.91776 | 30056 ft | 397 kts | 307° |
| 2026-04-23 02:48 | 41.79687 | -82.97810 | 30056 ft | 397 kts | 307° |
| 2026-04-23 02:49 | 41.82895 | -83.03856 | 30068 ft | 399 kts | 307° |
| 2026-04-23 02:49 | 41.86111 | -83.09925 | 30065 ft | 399 kts | 307° |
| 2026-04-23 02:50 | 41.89321 | -83.16003 | 30066 ft | 399 kts | 307° |
| 2026-04-23 02:50 | 41.92529 | -83.22082 | 30065 ft | 399 kts | 307° |
| 2026-04-23 02:51 | 41.95732 | -83.28169 | 30065 ft | 399 kts | 307° |
| 2026-04-23 02:51 | 41.98935 | -83.34260 | 30067 ft | 399 kts | 307° |
| 2026-04-23 02:52 | 42.02104 | -83.40306 | 30061 ft | 396 kts | 307° |
| 2026-04-23 02:52 | 42.05411 | -83.46227 | 30067 ft | 395 kts | 315° |
| 2026-04-23 02:53 | 42.09348 | -83.51415 | 30064 ft | 396 kts | 316° |
| 2026-04-23 02:53 | 42.13305 | -83.56575 | 30064 ft | 396 kts | 316° |
| 2026-04-23 02:54 | 42.17264 | -83.61731 | 30064 ft | 396 kts | 316° |
| 2026-04-23 02:54 | 42.21222 | -83.66890 | 30066 ft | 397 kts | 316° |
| 2026-04-23 02:55 | 42.25190 | -83.72071 | 30055 ft | 397 kts | 316° |
| 2026-04-23 02:55 | 42.29157 | -83.77257 | 30055 ft | 397 kts | 316° |
| 2026-04-23 02:56 | 42.33121 | -83.82451 | 30056 ft | 397 kts | 316° |
| 2026-04-23 02:56 | 42.37058 | -83.87616 | 30059 ft | 397 kts | 316° |
| 2026-04-23 02:57 | 42.41014 | -83.92818 | 30056 ft | 395 kts | 316° |
| 2026-04-23 02:57 | 42.44961 | -83.98018 | 30053 ft | 396 kts | 316° |
| 2026-04-23 02:58 | 42.48910 | -84.03228 | 30057 ft | 397 kts | 316° |
| 2026-04-23 02:58 | 42.52865 | -84.08452 | 30056 ft | 397 kts | 316° |
| 2026-04-23 02:59 | 42.56816 | -84.13694 | 30040 ft | 397 kts | 316° |
| 2026-04-23 02:59 | 42.60766 | -84.18930 | 30051 ft | 397 kts | 316° |
| 2026-04-23 03:00 | 42.64701 | -84.24163 | 30049 ft | 396 kts | 316° |
| 2026-04-23 03:00 | 42.68628 | -84.29393 | 30037 ft | 387 kts | 316° |
| 2026-04-23 03:00 | 42.70510 | -84.31906 | 30036 ft | 374 kts | 316° |
| 2026-04-23 03:01 | 42.72357 | -84.34370 | 30047 ft | 371 kts | 316° |
| 2026-04-23 03:01 | 42.76013 | -84.39257 | 30028 ft | 361 kts | 316° |
| 2026-04-23 03:01 | 42.77765 | -84.41602 | 29916 ft | 346 kts | 316° |
| 2026-04-23 03:02 | 42.79430 | -84.43835 | 29621 ft | 335 kts | 316° |
| 2026-04-23 03:02 | 42.81066 | -84.46033 | 29233 ft | 327 kts | 316° |
| 2026-04-23 03:02 | 42.82669 | -84.48184 | 28847 ft | 320 kts | 316° |
| 2026-04-23 03:02 | 42.84248 | -84.50305 | 28384 ft | 317 kts | 316° |
| 2026-04-23 03:03 | 42.85807 | -84.52401 | 28093 ft | 309 kts | 316° |
| 2026-04-23 03:03 | 42.87343 | -84.54467 | 28415 ft | 312 kts | 316° |
| 2026-04-23 03:03 | 42.88794 | -84.56418 | 29969 ft | 269 kts | 316° |
| 2026-04-23 03:03 | 42.90020 | -84.58069 | 31471 ft | 232 kts | 316° |
| 2026-04-23 03:04 | 42.91167 | -84.59618 | 31020 ft | 237 kts | 317° |
| 2026-04-23 03:04 | 42.92378 | -84.61240 | 30291 ft | 248 kts | 317° |
| 2026-04-23 03:04 | 42.93191 | -84.62337 | 29993 ft | 248 kts | 316° |
| 2026-04-23 03:04 | 42.94436 | -84.64019 | 29484 ft | 250 kts | 316° |
| 2026-04-23 03:05 | 42.95660 | -84.65675 | 28971 ft | 252 kts | 316° |
| 2026-04-23 03:05 | 42.96917 | -84.67377 | 28412 ft | 256 kts | 316° |
| 2026-04-23 03:05 | 42.98185 | -84.69095 | 28046 ft | 255 kts | 316° |
| 2026-04-23 03:05 | 42.99447 | -84.70853 | 28176 ft | 268 kts | 314° |
| 2026-04-23 03:06 | 43.00795 | -84.72760 | 28144 ft | 289 kts | 317° |
| 2026-04-23 03:06 | 43.02288 | -84.74734 | 28194 ft | 308 kts | 316° |
| 2026-04-23 03:06 | 43.03862 | -84.76839 | 28272 ft | 325 kts | 316° |
| 2026-04-23 03:06 | 43.05513 | -84.79058 | 28356 ft | 341 kts | 316° |
| 2026-04-23 03:07 | 43.07245 | -84.81387 | 28410 ft | 356 kts | 316° |
| 2026-04-23 03:07 | 43.09036 | -84.83802 | 27957 ft | 368 kts | 316° |
| 2026-04-23 03:07 | 43.10847 | -84.86253 | 28014 ft | 365 kts | 316° |
| 2026-04-23 03:08 | 43.13685 | -84.92131 | 28086 ft | 379 kts | 293° |
| 2026-04-23 03:08 | 43.14298 | -84.95671 | 28089 ft | 387 kts | 281° |
| 2026-04-23 03:08 | 43.14480 | -84.99362 | 28029 ft | 390 kts | 277° |
| 2026-04-23 03:09 | 43.14695 | -85.06792 | 28057 ft | 391 kts | 277° |
| 2026-04-23 03:09 | 43.14898 | -85.14255 | 28053 ft | 393 kts | 276° |
| 2026-04-23 03:10 | 43.15089 | -85.21734 | 28047 ft | 393 kts | 276° |
| 2026-04-23 03:10 | 43.15274 | -85.29176 | 28054 ft | 393 kts | 276° |
| 2026-04-23 03:11 | 43.15452 | -85.36661 | 28030 ft | 393 kts | 276° |
| 2026-04-23 03:11 | 43.15625 | -85.44141 | 28034 ft | 393 kts | 276° |
| 2026-04-23 03:12 | 43.15795 | -85.51628 | 28036 ft | 393 kts | 276° |
| 2026-04-23 03:12 | 43.15960 | -85.59114 | 28040 ft | 394 kts | 276° |
| 2026-04-23 03:13 | 43.16122 | -85.66611 | 28041 ft | 393 kts | 276° |
| 2026-04-23 03:13 | 43.16275 | -85.74046 | 28044 ft | 393 kts | 276° |
| 2026-04-23 03:14 | 43.16426 | -85.81525 | 28047 ft | 393 kts | 276° |
| 2026-04-23 03:14 | 43.16569 | -85.89001 | 28045 ft | 393 kts | 276° |
| 2026-04-23 03:15 | 43.16710 | -85.96480 | 28047 ft | 393 kts | 276° |
| 2026-04-23 03:15 | 43.16844 | -86.03938 | 28014 ft | 385 kts | 275° |
| 2026-04-23 03:15 | 43.16872 | -86.07648 | 27102 ft | 393 kts | 273° |
| 2026-04-23 03:16 | 43.16808 | -86.11402 | 26108 ft | 395 kts | 272° |
| 2026-04-23 03:16 | 43.16744 | -86.15133 | 25037 ft | 387 kts | 272° |
| 2026-04-23 03:16 | 43.16627 | -86.22403 | 22961 ft | 373 kts | 272° |
| 2026-04-23 03:17 | 43.16570 | -86.25870 | 23029 ft | 366 kts | 272° |
| 2026-04-23 03:17 | 43.16519 | -86.29382 | 22862 ft | 370 kts | 272° |
| 2026-04-23 03:17 | 43.16464 | -86.32914 | 22729 ft | 372 kts | 272° |
| 2026-04-23 03:17 | 43.16408 | -86.36457 | 22593 ft | 372 kts | 272° |
| 2026-04-23 03:18 | 43.16351 | -86.40008 | 22436 ft | 373 kts | 272° |
| 2026-04-23 03:18 | 43.16292 | -86.43558 | 22273 ft | 372 kts | 272° |
| 2026-04-23 03:18 | 43.16233 | -86.47099 | 22110 ft | 371 kts | 272° |
| 2026-04-23 03:18 | 43.16176 | -86.50588 | 21953 ft | 371 kts | 272° |
| 2026-04-23 03:19 | 43.16114 | -86.54121 | 21795 ft | 370 kts | 272° |
| 2026-04-23 03:19 | 43.16052 | -86.57642 | 21635 ft | 370 kts | 272° |
| 2026-04-23 03:19 | 43.15990 | -86.61163 | 21472 ft | 369 kts | 271° |
| 2026-04-23 03:19 | 43.15926 | -86.64673 | 21314 ft | 368 kts | 271° |
| 2026-04-23 03:20 | 43.15861 | -86.68176 | 21155 ft | 367 kts | 271° |
| 2026-04-23 03:20 | 43.15795 | -86.71663 | 20996 ft | 366 kts | 271° |
| 2026-04-23 03:20 | 43.15729 | -86.75144 | 20839 ft | 366 kts | 271° |
| 2026-04-23 03:20 | 43.15662 | -86.78628 | 20680 ft | 365 kts | 271° |
| 2026-04-23 03:21 | 43.15593 | -86.82103 | 20520 ft | 364 kts | 271° |
| 2026-04-23 03:21 | 43.15524 | -86.85566 | 20365 ft | 364 kts | 271° |
| 2026-04-23 03:21 | 43.15454 | -86.89029 | 20206 ft | 363 kts | 271° |
| 2026-04-23 03:21 | 43.15384 | -86.92478 | 20052 ft | 362 kts | 271° |
| 2026-04-23 03:22 | 43.15312 | -86.95922 | 19898 ft | 361 kts | 271° |
| 2026-04-23 03:22 | 43.15240 | -86.99365 | 19683 ft | 361 kts | 271° |
| 2026-04-23 03:22 | 43.15168 | -87.02790 | 19410 ft | 361 kts | 271° |
| 2026-04-23 03:22 | 43.15091 | -87.06176 | 19056 ft | 359 kts | 271° |
| 2026-04-23 03:23 | 43.15012 | -87.09581 | 18622 ft | 358 kts | 271° |
| 2026-04-23 03:23 | 43.14934 | -87.12978 | 18119 ft | 355 kts | 271° |
| 2026-04-23 03:23 | 43.14852 | -87.16341 | 17629 ft | 352 kts | 270° |
| 2026-04-23 03:23 | 43.14773 | -87.19672 | 17168 ft | 348 kts | 270° |
| 2026-04-23 03:24 | 43.14693 | -87.22974 | 16704 ft | 346 kts | 270° |
| 2026-04-23 03:24 | 43.14613 | -87.26256 | 16241 ft | 344 kts | 270° |
| 2026-04-23 03:24 | 43.14533 | -87.29515 | 15784 ft | 342 kts | 270° |
| 2026-04-23 03:24 | 43.14453 | -87.32757 | 15331 ft | 339 kts | 270° |
| 2026-04-23 03:25 | 43.14294 | -87.35969 | 14867 ft | 339 kts | 262° |
| 2026-04-23 03:25 | 43.13590 | -87.39022 | 14398 ft | 333 kts | 255° |
| 2026-04-23 03:25 | 43.12795 | -87.41950 | 13920 ft | 325 kts | 242° |
| 2026-04-23 03:25 | 43.11512 | -87.44380 | 13525 ft | 310 kts | 236° |
| 2026-04-23 03:26 | 43.10418 | -87.46879 | 13199 ft | 304 kts | 253° |
| 2026-04-23 03:26 | 43.09868 | -87.49653 | 12953 ft | 299 kts | 258° |
| 2026-04-23 03:26 | 43.09335 | -87.52370 | 13048 ft | 298 kts | 258° |
| 2026-04-23 03:26 | 43.08779 | -87.55157 | 12584 ft | 306 kts | 257° |
| 2026-04-23 03:27 | 43.08197 | -87.57954 | 12119 ft | 305 kts | 256° |
| 2026-04-23 03:27 | 43.07601 | -87.60732 | 11640 ft | 302 kts | 257° |
| 2026-04-23 03:27 | 43.07368 | -87.63526 | 11219 ft | 293 kts | 276° |
| 2026-04-23 03:27 | 43.07615 | -87.66257 | 10866 ft | 287 kts | 279° |
| 2026-04-23 03:28 | 43.07892 | -87.68957 | 10487 ft | 286 kts | 279° |
| 2026-04-23 03:28 | 43.08177 | -87.71653 | 10124 ft | 287 kts | 279° |
| 2026-04-23 03:28 | 43.08471 | -87.74357 | 9757 ft | 288 kts | 279° |
| 2026-04-23 03:28 | 43.08478 | -87.77079 | 9381 ft | 289 kts | 259° |
| 2026-04-23 03:29 | 43.07920 | -87.79720 | 8992 ft | 290 kts | 253° |
| 2026-04-23 03:29 | 43.07326 | -87.82359 | 8540 ft | 290 kts | 253° |
| 2026-04-23 03:29 | 43.06747 | -87.84985 | 8150 ft | 287 kts | 253° |
| 2026-04-23 03:29 | 43.06181 | -87.87583 | 7758 ft | 284 kts | 254° |
| 2026-04-23 03:30 | 43.05621 | -87.90157 | 7360 ft | 282 kts | 253° |
| 2026-04-23 03:30 | 43.05069 | -87.92718 | 6965 ft | 280 kts | 254° |
| 2026-04-23 03:30 | 43.04522 | -87.95265 | 6572 ft | 278 kts | 254° |
| 2026-04-23 03:30 | 43.03984 | -87.97796 | 6183 ft | 277 kts | 254° |
| 2026-04-23 03:31 | 43.03452 | -88.00318 | 5796 ft | 275 kts | 254° |
| 2026-04-23 03:31 | 43.02930 | -88.02824 | 5401 ft | 273 kts | 253° |
| 2026-04-23 03:31 | 43.02425 | -88.05308 | 5030 ft | 271 kts | 254° |
| 2026-04-23 03:31 | 43.01932 | -88.07786 | 4650 ft | 270 kts | 254° |
| 2026-04-23 03:32 | 43.01444 | -88.10262 | 4270 ft | 270 kts | 254° |
| 2026-04-23 03:32 | 43.00959 | -88.12712 | 4122 ft | 264 kts | 254° |
| 2026-04-23 03:32 | 43.00483 | -88.15140 | 4060 ft | 266 kts | 254° |
| 2026-04-23 03:32 | 43.00006 | -88.17561 | 4008 ft | 268 kts | 254° |
| 2026-04-23 03:33 | 42.99520 | -88.20023 | 3963 ft | 269 kts | 254° |
| 2026-04-23 03:33 | 42.99026 | -88.22532 | 3873 ft | 270 kts | 254° |
| 2026-04-23 03:33 | 42.98283 | -88.24877 | 3647 ft | 270 kts | 234° |
| 2026-04-23 03:33 | 42.96936 | -88.26579 | 3351 ft | 268 kts | 208° |
| 2026-04-23 03:34 | 42.95181 | -88.27315 | 3084 ft | 263 kts | 183° |
| 2026-04-23 03:34 | 42.93396 | -88.26978 | 2834 ft | 259 kts | 159° |
| 2026-04-23 03:34 | 42.91906 | -88.25686 | 2689 ft | 249 kts | 135° |
| 2026-04-23 03:34 | 42.90933 | -88.23834 | 2653 ft | 234 kts | 115° |
| 2026-04-23 03:35 | 42.90526 | -88.21758 | 2605 ft | 222 kts | 94° |
| 2026-04-23 03:35 | 42.90680 | -88.19722 | 2666 ft | 209 kts | 75° |
| 2026-04-23 03:35 | 42.91110 | -88.17869 | 2768 ft | 198 kts | 72° |
| 2026-04-23 03:35 | 42.91542 | -88.16226 | 2718 ft | 171 kts | 70° |
| 2026-04-23 03:36 | 42.91969 | -88.14834 | 2591 ft | 147 kts | 66° |
| 2026-04-23 03:36 | 42.92651 | -88.13899 | 2290 ft | 143 kts | 17° |
| 2026-04-23 03:36 | 42.93555 | -88.13442 | 2089 ft | 136 kts | 27° |
| 2026-04-23 03:36 | 42.94180 | -88.12556 | 1786 ft | 132 kts | 76° |
| 2026-04-23 03:37 | 42.94125 | -88.11332 | 1563 ft | 129 kts | 101° |
| 2026-04-23 03:37 | 42.94009 | -88.10119 | 1330 ft | 129 kts | 90° |
| 2026-04-23 03:37 | 42.94016 | -88.08929 | 1270 ft | 128 kts | 96° |
| 2026-04-23 03:37 | 42.93861 | -88.07739 | 1270 ft | 129 kts | 95° |
| 2026-04-23 03:38 | 42.93728 | -88.06540 | 1399 ft | 129 kts | 103° |
| 2026-04-23 03:38 | 42.93533 | -88.05333 | 1478 ft | 134 kts | 99° |
| 2026-04-23 03:38 | 42.93290 | -88.04143 | 1618 ft | 129 kts | 111° |
| 2026-04-23 03:38 | 42.92894 | -88.03012 | 1729 ft | 133 kts | 116° |
| 2026-04-23 03:39 | 42.92482 | -88.01867 | 1713 ft | 136 kts | 111° |
| 2026-04-23 03:39 | 42.92095 | -88.00711 | 1657 ft | 133 kts | 114° |
| 2026-04-23 03:39 | 42.91882 | -87.99514 | 1580 ft | 131 kts | 75° |
| 2026-04-23 03:39 | 42.92272 | -87.98410 | 1596 ft | 130 kts | 61° |
| 2026-04-23 03:40 | 42.92600 | -87.97260 | 1607 ft | 131 kts | 73° |
| 2026-04-23 03:40 | 42.92858 | -87.96038 | 1413 ft | 134 kts | 71° |
| 2026-04-23 03:40 | 42.93161 | -87.94860 | 1252 ft | 130 kts | 70° |
| 2026-04-23 03:40 | 42.93451 | -87.93690 | 1075 ft | 130 kts | 71° |
| 2026-04-23 03:41 | 42.93730 | -87.92520 | 890 ft | 130 kts | 71° |
| 2026-04-23 03:41 | 42.94011 | -87.91356 | 706 ft | 125 kts | 71° |
| 2026-04-23 03:41 | 42.94253 | -87.90396 | 686 ft | 83 kts | 71° |
| 2026-04-23 03:41 | 42.94371 | -87.89964 | 684 ft | 25 kts | 30° |
| 2026-04-23 03:42 | 42.94431 | -87.89960 | 682 ft | 4 kts | 348° |
| 2026-04-23 03:42 | 42.94489 | -87.89973 | 686 ft | 10 kts | 352° |
| 2026-04-23 03:42 | 42.94571 | -87.89985 | 686 ft | 13 kts | 355° |
| 2026-04-23 03:42 | 42.94659 | -87.90014 | 683 ft | 14 kts | 334° |
| 2026-04-23 03:43 | 42.94707 | -87.90014 | 686 ft | 0 kts | 18° |
| 2026-04-23 03:43 | 42.94709 | -87.90013 | 686 ft | 0 kts | 4° |
| 2026-04-23 03:43 | 42.94718 | -87.90015 | 684 ft | 1 kts | 350° |
| 2026-04-23 03:43 | 42.94726 | -87.90017 | 686 ft | 0 kts | 3° |
| 2026-04-23 03:44 | 42.94730 | -87.90015 | 686 ft | 0 kts | 33° |
| 2026-04-23 03:44 | 42.94731 | -87.90015 | 686 ft | 0 kts | 35° |